TimeCST,TemperatureF,Dew PointF,Humidity,Sea Level PressureIn,VisibilityMPH,Wind Direction,Wind SpeedMPH,Gust SpeedMPH,PrecipitationIn,Events,Conditions,WindDirDegrees,DateUTC
12:15 AM,59.0,30.2,34,29.85,10.0,SSW,18.4,27.6,N/A,,Clear,210,2013-02-18 06:15:00
12:35 AM,59.0,32.0,36,29.86,10.0,SSW,15.0,33.4,N/A,,Clear,200,2013-02-18 06:35:00
12:55 AM,57.2,32.0,38,29.86,10.0,SSW,20.7,32.2,N/A,,Clear,210,2013-02-18 06:55:00
1:15 AM,57.2,32.0,38,29.85,10.0,SSW,18.4,28.8,N/A,,Clear,210,2013-02-18 07:15:00
1:35 AM,57.2,33.8,41,29.85,10.0,SSW,23.0,32.2,N/A,,Clear,200,2013-02-18 07:35:00
1:55 AM,57.2,35.6,44,29.85,10.0,SSW,18.4,33.4,N/A,,Clear,210,2013-02-18 07:55:00
2:15 AM,55.4,37.4,51,29.85,10.0,SSW,23.0,35.7,N/A,,Clear,210,2013-02-18 08:15:00
2:35 AM,55.4,37.4,51,29.84,10.0,SSW,19.6,35.7,N/A,,Scattered Clouds,200,2013-02-18 08:35:00
2:55 AM,55.4,39.2,54,29.83,10.0,SSW,21.9,29.9,N/A,,Scattered Clouds,200,2013-02-18 08:55:00
3:15 AM,55.4,41.0,58,29.82,10.0,SSW,18.4,28.8,N/A,,Scattered Clouds,200,2013-02-18 09:15:00
3:35 AM,55.4,41.0,58,29.81,10.0,SSW,18.4,32.2,N/A,,Mostly Cloudy,200,2013-02-18 09:35:00
3:55 AM,55.4,41.0,58,29.81,10.0,SSW,15.0,27.6,N/A,,Overcast,200,2013-02-18 09:55:00
4:15 AM,55.4,41.0,58,29.80,10.0,SSW,17.3,24.2,N/A,,Overcast,200,2013-02-18 10:15:00
4:35 AM,57.2,42.8,59,29.80,10.0,SSW,18.4,29.9,N/A,,Overcast,200,2013-02-18 10:35:00
4:55 AM,57.2,42.8,59,29.79,10.0,SSW,20.7,29.9,N/A,,Overcast,200,2013-02-18 10:55:00
5:15 AM,57.2,42.8,59,29.78,10.0,SSW,20.7,29.9,N/A,,Overcast,200,2013-02-18 11:15:00
5:35 AM,55.4,44.6,67,29.78,10.0,SSW,13.8,32.2,N/A,,Mostly Cloudy,200,2013-02-18 11:35:00
6:15 AM,57.2,44.6,63,29.76,10.0,South,20.7,27.6,N/A,,Overcast,190,2013-02-18 12:15:00
6:35 AM,57.2,44.6,63,29.75,10.0,SSW,20.7,32.2,N/A,,Overcast,200,2013-02-18 12:35:00
6:55 AM,57.2,44.6,63,29.75,10.0,South,20.7,29.9,N/A,,Overcast,190,2013-02-18 12:55:00
7:15 AM,57.2,46.4,67,29.75,10.0,SSW,18.4,28.8,N/A,,Overcast,210,2013-02-18 13:15:00
7:35 AM,57.2,46.4,67,29.74,10.0,SSW,23.0,31.1,N/A,,Overcast,200,2013-02-18 13:35:00
7:55 AM,57.2,46.4,67,29.74,9.0,SSW,19.6,33.4,N/A,,Overcast,200,2013-02-18 13:55:00
8:15 AM,59.0,46.4,63,29.76,10.0,SSW,17.3,27.6,N/A,,Overcast,210,2013-02-18 14:15:00
8:35 AM,59.0,46.4,63,29.75,9.0,SSW,18.4,31.1,N/A,,Overcast,210,2013-02-18 14:35:00
8:55 AM,59.0,46.4,63,29.75,10.0,SSW,16.1,35.7,N/A,,Overcast,200,2013-02-18 14:55:00
9:15 AM,59.0,46.4,63,29.74,10.0,SSW,16.1,26.5,N/A,,Overcast,200,2013-02-18 15:15:00
9:35 AM,59.0,48.2,67,29.74,9.0,SSW,21.9,39.1,N/A,,Overcast,200,2013-02-18 15:35:00
9:55 AM,60.8,48.2,63,29.73,9.0,SSW,18.4,32.2,N/A,,Overcast,200,2013-02-18 15:55:00
10:15 AM,60.8,48.2,63,29.72,10.0,SSW,21.9,34.5,N/A,,Overcast,200,2013-02-18 16:15:00
10:35 AM,62.6,48.2,59,29.71,9.0,SSW,20.7,29.9,N/A,,Overcast,210,2013-02-18 16:35:00
10:55 AM,60.8,48.2,63,29.71,10.0,SSW,20.7,27.6,N/A,,Overcast,210,2013-02-18 16:55:00
11:15 AM,62.6,48.2,59,29.71,9.0,SSW,19.6,29.9,N/A,,Overcast,210,2013-02-18 17:15:00
11:35 AM,62.6,48.2,59,29.70,9.0,SW,27.6,36.8,N/A,,Overcast,220,2013-02-18 17:35:00
11:55 AM,62.6,48.2,59,29.69,10.0,SSW,24.2,29.9,N/A,,Overcast,210,2013-02-18 17:55:00
12:15 PM,64.4,48.2,56,29.69,9.0,SW,23.0,33.4,N/A,,Overcast,220,2013-02-18 18:15:00
12:35 PM,64.4,48.2,56,29.69,9.0,SSW,26.5,32.2,N/A,,Overcast,210,2013-02-18 18:35:00
12:55 PM,66.2,48.2,52,29.67,9.0,SW,21.9,34.5,N/A,,Overcast,220,2013-02-18 18:55:00
1:15 PM,68.0,48.2,49,29.65,10.0,SW,20.7,29.9,N/A,,Overcast,220,2013-02-18 19:15:00
1:35 PM,62.6,51.8,68,29.65,5.0,WSW,17.3,28.8,N/A,Thunderstorm,Unknown,240,2013-02-18 19:35:00
1:55 PM,59.0,50.0,72,29.67,9.0,WNW,21.9,31.1,0.02,Thunderstorm,Mostly Cloudy,290,2013-02-18 19:55:00
2:15 PM,64.4,44.6,49,29.67,9.0,WNW,23.0,32.2,N/A,,Mostly Cloudy,290,2013-02-18 20:15:00
2:35 PM,64.4,39.2,40,29.69,10.0,WNW,21.9,32.2,N/A,,Partly Cloudy,300,2013-02-18 20:35:00
2:55 PM,62.6,33.8,34,29.72,9.0,WNW,21.9,39.1,N/A,,Clear,300,2013-02-18 20:55:00
3:15 PM,62.6,32.0,32,29.74,10.0,NW,23.0,39.1,N/A,,Clear,320,2013-02-18 21:15:00
3:35 PM,60.8,32.0,34,29.76,10.0,NW,24.2,36.8,N/A,,Clear,320,2013-02-18 21:35:00
3:55 PM,59.0,32.0,36,29.78,10.0,NW,24.2,36.8,N/A,,Clear,310,2013-02-18 21:55:00
4:15 PM,59.0,32.0,36,29.80,9.0,NNW,20.7,33.4,N/A,,Clear,330,2013-02-18 22:15:00
4:35 PM,57.2,30.2,36,29.82,9.0,NW,18.4,29.9,N/A,,Clear,310,2013-02-18 22:35:00
5:15 PM,55.4,30.2,38,29.85,9.0,NNW,17.3,33.4,N/A,,Clear,330,2013-02-18 23:15:00
5:35 PM,53.6,30.2,41,29.87,10.0,NW,19.6,26.5,N/A,,Clear,320,2013-02-18 23:35:00
5:55 PM,53.6,30.2,41,29.88,10.0,NNW,13.8,25.3,N/A,,Clear,330,2013-02-18 23:55:00
6:15 PM,51.8,28.4,41,29.90,10.0,NW,17.3,-,N/A,,Clear,320,2013-02-19 00:15:00
6:35 PM,51.8,28.4,41,29.92,10.0,NNW,12.7,18.4,N/A,,Clear,330,2013-02-19 00:35:00
6:55 PM,50.0,28.4,43,29.94,10.0,NW,11.5,-,N/A,,Partly Cloudy,320,2013-02-19 00:55:00
7:15 PM,50.0,28.4,43,29.96,10.0,NNW,13.8,18.4,N/A,,Clear,340,2013-02-19 01:15:00
7:35 PM,48.2,28.4,46,29.98,10.0,NNW,18.4,24.2,N/A,,Clear,340,2013-02-19 01:35:00
7:55 PM,48.2,28.4,46,30.00,10.0,North,9.2,19.6,N/A,,Clear,350,2013-02-19 01:55:00
8:15 PM,46.4,28.4,50,30.01,10.0,NNW,9.2,-,N/A,,Clear,340,2013-02-19 02:15:00
8:35 PM,46.4,30.2,53,30.02,10.0,North,8.1,-,N/A,,Clear,350,2013-02-19 02:35:00
8:55 PM,44.6,30.2,57,30.04,10.0,North,8.1,-,N/A,,Clear,350,2013-02-19 02:55:00
9:15 PM,46.4,28.4,50,30.05,10.0,North,11.5,19.6,N/A,,Clear,350,2013-02-19 03:15:00
9:35 PM,44.6,28.4,53,30.07,10.0,North,10.4,-,N/A,,Partly Cloudy,350,2013-02-19 03:35:00
9:55 PM,44.6,28.4,53,30.09,10.0,North,10.4,-,N/A,,Clear,350,2013-02-19 03:55:00
10:15 PM,44.6,28.4,53,30.11,10.0,North,10.4,-,N/A,,Clear,360,2013-02-19 04:15:00
10:35 PM,42.8,26.6,53,30.12,10.0,North,12.7,18.4,N/A,,Clear,350,2013-02-19 04:35:00
10:55 PM,42.8,26.6,53,30.13,10.0,North,12.7,19.6,N/A,,Clear,360,2013-02-19 04:55:00
11:15 PM,41.0,26.6,57,30.15,10.0,North,12.7,-,N/A,,Clear,360,2013-02-19 05:15:00
11:35 PM,41.0,24.8,53,30.16,10.0,North,10.4,18.4,N/A,,Clear,350,2013-02-19 05:35:00
11:55 PM,41.0,24.8,53,30.17,10.0,North,13.8,-,N/A,,Clear,360,2013-02-19 05:55:00